createdAt,value
2018-06-03T00:00:53.514Z,96.51
2018-06-03T00:01:53.683Z,96.80
2018-06-03T00:02:53.854Z,96.61
2018-06-03T00:03:54.031Z,96.61
2018-06-03T00:04:54.198Z,96.89
2018-06-03T00:05:54.371Z,96.61
2018-06-03T00:06:54.536Z,96.80
2018-06-03T00:07:54.705Z,97.09
2018-06-03T00:08:54.874Z,96.99
2018-06-03T00:09:55.060Z,96.70
2018-06-03T00:10:55.224Z,96.80
2018-06-03T00:11:55.391Z,96.85
2018-06-03T00:12:55.563Z,97.14
2018-06-03T00:13:55.729Z,96.61
2018-06-03T00:14:55.902Z,96.42
2018-06-03T00:15:56.081Z,96.42
2018-06-03T00:16:56.246Z,96.22
2018-06-03T00:17:56.413Z,95.64
2018-06-03T00:18:56.595Z,96.22
2018-06-03T00:19:56.771Z,96.12
2018-06-03T00:20:56.937Z,96.51
2018-06-03T00:21:57.108Z,96.22
2018-06-03T00:22:57.275Z,96.80
2018-06-03T00:23:57.448Z,96.89
2018-06-03T00:24:57.620Z,96.80
2018-06-03T00:25:57.787Z,97.19
2018-06-03T00:26:57.961Z,97.28
2018-06-03T00:27:58.132Z,96.89
2018-06-03T00:28:58.299Z,96.42
2018-06-03T00:29:58.472Z,96.70
2018-06-03T00:30:58.639Z,96.70
2018-06-03T00:31:58.828Z,96.80
2018-06-03T00:32:58.992Z,96.51
2018-06-03T00:33:59.168Z,96.03
2018-06-03T00:34:59.334Z,97.09
2018-06-03T00:35:59.515Z,96.80
2018-06-03T00:36:59.689Z,96.42
2018-06-03T00:37:59.854Z,96.70
2018-06-03T00:39:00.024Z,96.80
2018-06-03T00:40:00.196Z,96.32
2018-06-03T00:41:00.366Z,96.80
2018-06-03T00:42:00.540Z,96.85
2018-06-03T00:43:00.720Z,96.70
2018-06-03T00:44:00.883Z,96.89
2018-06-03T00:45:01.070Z,96.80
2018-06-03T00:46:01.244Z,96.51
2018-06-03T00:47:01.419Z,96.85
2018-06-03T00:48:01.598Z,96.75
2018-06-03T00:49:01.776Z,97.14
2018-06-03T00:50:01.948Z,97.14
2018-06-03T00:51:02.110Z,96.66
2018-06-03T00:52:02.280Z,96.85
2018-06-03T00:53:02.452Z,97.52
2018-06-03T00:54:02.625Z,97.24
2018-06-03T00:55:02.795Z,97.42
2018-06-03T00:56:02.966Z,97.72
2018-06-03T00:57:03.132Z,98.58
2018-06-03T00:58:03.304Z,98.49
2018-06-03T00:59:03.474Z,98.14
2018-06-03T01:00:03.641Z,98.05
2018-06-03T01:01:03.827Z,98.24
2018-06-03T01:02:03.995Z,98.82
2018-06-03T01:03:04.165Z,98.58
2018-06-03T01:04:04.329Z,98.68
2018-06-03T01:05:04.514Z,98.82
2018-06-03T01:06:04.684Z,98.63
2018-06-03T01:07:04.849Z,98.39
2018-06-03T01:08:05.016Z,97.96
2018-06-03T01:09:05.182Z,98.34
2018-06-03T01:10:05.354Z,98.44
2018-06-03T01:11:05.521Z,98.19
2018-06-03T01:12:05.685Z,97.96
2018-06-03T01:13:05.858Z,98.44
2018-06-03T01:14:06.024Z,98.82
2018-06-03T01:15:06.192Z,98.72
2018-06-03T01:16:06.365Z,98.54
2018-06-03T01:17:06.528Z,98.63
2018-06-03T01:18:06.696Z,98.82
2018-06-03T01:19:06.865Z,99.01
2018-06-03T01:20:07.033Z,99.21
2018-06-03T01:21:07.204Z,98.92
2018-06-03T01:22:07.378Z,98.82
2018-06-03T01:23:07.547Z,99.30
2018-06-03T01:24:07.716Z,99.30
2018-06-03T01:25:07.883Z,99.21
2018-06-03T01:26:08.054Z,99.11
2018-06-03T01:27:08.223Z,99.11
2018-06-03T01:28:08.395Z,98.44
2018-06-03T01:29:08.566Z,98.14
2018-06-03T01:30:08.735Z,97.57
2018-06-03T01:31:08.912Z,97.28
2018-06-03T01:32:09.074Z,96.99
2018-06-03T01:33:09.248Z,97.42
2018-06-03T01:34:09.416Z,97.28
2018-06-03T01:35:09.588Z,97.47
2018-06-03T01:36:09.767Z,97.57
2018-06-03T01:37:09.936Z,98.34
2018-06-03T01:38:10.103Z,98.34
2018-06-03T01:39:10.274Z,98.63
2018-06-03T01:40:10.444Z,98.34
2018-06-03T01:41:10.612Z,98.72
2018-06-03T01:42:10.787Z,98.68
2018-06-03T01:43:10.962Z,98.54
2018-06-03T01:44:11.132Z,98.34
2018-06-03T01:45:11.297Z,98.39
2018-06-03T01:46:11.471Z,98.72
2018-06-03T01:47:11.641Z,98.63
2018-06-03T01:48:11.814Z,98.54
2018-06-03T01:49:11.985Z,98.14
2018-06-03T01:50:12.146Z,98.14
2018-06-03T01:51:12.317Z,98.54
2018-06-03T01:52:12.493Z,98.54
2018-06-03T01:53:12.665Z,98.34
2018-06-03T01:54:12.832Z,98.24
2018-06-03T01:55:13.004Z,98.14
2018-06-03T01:56:13.177Z,98.05
2018-06-03T01:57:13.346Z,98.14
2018-06-03T01:58:13.519Z,98.24
2018-06-03T01:59:13.685Z,98.39
2018-06-03T02:00:13.868Z,98.49
2018-06-03T02:01:14.032Z,98.68
2018-06-03T02:02:14.200Z,98.96
2018-06-03T02:03:14.362Z,99.06
2018-06-03T02:04:14.526Z,99.26
2018-06-03T02:05:14.695Z,98.77
2018-06-03T02:06:14.867Z,98.19
2018-06-03T02:07:15.040Z,98.29
2018-06-03T02:08:15.207Z,98.10
2018-06-03T02:09:15.373Z,98.10
2018-06-03T02:10:15.546Z,98.29
2018-06-03T02:11:15.709Z,98.19
2018-06-03T02:12:15.873Z,98.49
2018-06-03T02:13:16.035Z,98.19
2018-06-03T02:14:16.208Z,98.49
2018-06-03T02:15:16.390Z,98.49
2018-06-03T02:16:16.558Z,98.10
2018-06-03T02:17:16.731Z,98.10
2018-06-03T02:18:16.896Z,97.91
2018-06-03T02:19:17.071Z,98.19
2018-06-03T02:20:17.233Z,98.10
2018-06-03T02:21:17.396Z,97.52
2018-06-03T02:22:17.567Z,97.71
2018-06-03T02:23:17.729Z,97.62
2018-06-03T02:24:17.900Z,97.24
2018-06-03T02:25:18.066Z,97.33
2018-06-03T02:26:18.234Z,97.33
2018-06-03T02:27:18.400Z,96.85
2018-06-03T02:28:18.572Z,96.94
2018-06-03T02:29:18.743Z,97.24
2018-06-03T02:30:18.905Z,97.71
2018-06-03T02:31:19.075Z,97.71
2018-06-03T02:32:19.244Z,97.81
2018-06-03T02:33:19.413Z,97.62
2018-06-03T02:34:19.582Z,97.71
2018-06-03T02:35:19.749Z,97.42
2018-06-03T02:36:19.918Z,97.14
2018-06-03T02:37:20.088Z,97.33
2018-06-03T02:38:20.256Z,97.33
2018-06-03T02:39:20.427Z,97.14
2018-06-03T02:40:20.590Z,97.42
2018-06-03T02:41:20.797Z,97.52
2018-06-03T02:42:20.933Z,97.71
2018-06-03T02:43:21.116Z,98.00
2018-06-03T02:44:21.284Z,98.49
2018-06-03T02:45:21.449Z,98.29
2018-06-03T02:46:21.617Z,98.58
2018-06-03T02:47:21.795Z,98.19
2018-06-03T02:48:21.964Z,98.19
2018-06-03T02:49:22.133Z,98.39
2018-06-03T02:50:22.303Z,98.77
2018-06-03T02:51:22.470Z,98.68
2018-06-03T02:52:22.641Z,98.77
2018-06-03T02:53:22.809Z,98.77
2018-06-03T02:54:22.979Z,98.68
2018-06-03T02:55:23.146Z,98.87
2018-06-03T02:56:23.317Z,99.26
2018-06-03T02:57:23.492Z,99.26
2018-06-03T02:58:23.666Z,99.35
2018-06-03T02:59:23.911Z,99.16
2018-06-03T03:00:24.011Z,99.16
2018-06-03T03:01:24.183Z,99.54
2018-06-03T03:02:24.350Z,99.99
2018-06-03T03:03:24.518Z,99.93
2018-06-03T03:04:24.681Z,99.99
2018-06-03T03:05:24.856Z,99.44
2018-06-03T03:06:25.026Z,99.35
2018-06-03T03:07:25.193Z,98.68
2018-06-03T03:08:25.365Z,98.49
2018-06-03T03:09:25.542Z,98.00
2018-06-03T03:10:25.713Z,98.58
2018-06-03T03:11:25.873Z,98.58
2018-06-03T03:12:26.045Z,99.16
2018-06-03T03:13:26.210Z,99.06
2018-06-03T03:14:26.386Z,99.54
2018-06-03T03:15:26.559Z,98.39
2018-06-03T03:16:26.725Z,98.10
2018-06-03T03:17:26.890Z,97.81
2018-06-03T03:18:27.061Z,98.49
2018-06-03T03:19:27.242Z,99.01
2018-06-03T03:20:27.414Z,99.01
2018-06-03T03:21:27.582Z,99.49
2018-06-03T03:22:27.747Z,99.30
2018-06-03T03:23:27.921Z,99.73
2018-06-03T03:24:28.085Z,99.73
2018-06-03T03:25:28.257Z,99.73
2018-06-03T03:26:28.424Z,99.26
2018-06-03T03:27:28.591Z,99.35
2018-06-03T03:28:28.763Z,99.93
2018-06-03T03:29:28.929Z,99.73
2018-06-03T03:30:29.104Z,99.93
2018-06-03T03:31:29.275Z,99.93
2018-06-03T03:32:29.446Z,99.73
2018-06-03T03:33:29.615Z,99.54
2018-06-03T03:34:29.780Z,99.40
2018-06-03T03:35:29.955Z,99.01
2018-06-03T03:36:30.112Z,99.30
2018-06-03T03:37:30.279Z,98.44
2018-06-03T03:38:30.452Z,99.40
2018-06-03T03:39:30.637Z,99.21
2018-06-03T03:40:30.801Z,99.59
2018-06-03T03:41:30.971Z,99.99
2018-06-03T03:42:31.144Z,99.99
2018-06-03T03:43:31.310Z,99.99
2018-06-03T03:44:31.481Z,99.99
2018-06-03T03:45:31.648Z,99.99
2018-06-03T03:46:31.815Z,99.99
2018-06-03T03:47:31.984Z,99.99
2018-06-03T03:48:32.156Z,99.99
2018-06-03T03:49:32.325Z,99.99
2018-06-03T03:50:32.483Z,99.99
2018-06-03T03:51:32.664Z,99.99
2018-06-03T03:52:32.842Z,99.99
2018-06-03T03:53:33.008Z,99.99
2018-06-03T03:54:33.187Z,99.99
2018-06-03T03:55:33.353Z,99.99
2018-06-03T03:56:33.528Z,99.99
2018-06-03T03:57:33.689Z,99.99
2018-06-03T03:58:33.859Z,99.99
2018-06-03T03:59:34.029Z,99.99
2018-06-03T04:00:34.197Z,99.99
2018-06-03T04:01:34.371Z,99.99
2018-06-03T04:02:34.534Z,99.99
2018-06-03T04:03:34.705Z,99.99
2018-06-03T04:04:34.877Z,99.99
2018-06-03T04:05:35.047Z,99.99
2018-06-03T04:06:35.234Z,99.99
2018-06-03T04:07:35.376Z,99.99
2018-06-03T04:08:35.548Z,99.99
2018-06-03T04:09:35.717Z,99.99
2018-06-03T04:10:35.880Z,99.99
2018-06-03T04:11:36.054Z,99.99
2018-06-03T04:12:36.228Z,99.99
2018-06-03T04:13:36.395Z,99.99
2018-06-03T04:14:36.558Z,99.99
2018-06-03T04:15:36.730Z,99.99
2018-06-03T04:16:36.896Z,99.99
2018-06-03T04:17:37.075Z,99.99
2018-06-03T04:18:37.245Z,99.99
2018-06-03T04:19:37.411Z,99.99
2018-06-03T04:20:37.584Z,99.99
2018-06-03T04:21:37.749Z,99.99
2018-06-03T04:22:37.919Z,99.99
2018-06-03T04:23:38.090Z,99.99
2018-06-03T04:24:38.267Z,99.99
2018-06-03T04:25:38.438Z,99.99
2018-06-03T04:26:38.607Z,99.99
2018-06-03T04:27:38.775Z,99.99
2018-06-03T04:28:38.944Z,99.99
2018-06-03T04:29:39.119Z,99.99
2018-06-03T04:30:39.285Z,99.99
2018-06-03T04:31:39.455Z,99.99
2018-06-03T04:32:39.624Z,99.99
2018-06-03T04:33:39.790Z,99.99
2018-06-03T04:34:39.962Z,99.99
2018-06-03T04:35:40.126Z,99.99
2018-06-03T04:36:40.292Z,99.99
2018-06-03T04:37:40.466Z,99.99
2018-06-03T04:38:40.633Z,99.99
2018-06-03T04:39:40.805Z,99.99
2018-06-03T04:40:40.969Z,99.99
2018-06-03T04:41:41.142Z,99.99
2018-06-03T04:42:41.309Z,99.99
2018-06-03T04:43:41.710Z,99.99
2018-06-03T04:44:41.597Z,99.99
2018-06-03T04:45:41.763Z,99.99
2018-06-03T04:46:41.935Z,99.99
2018-06-03T04:47:42.103Z,99.99
2018-06-03T04:48:42.329Z,99.99
2018-06-03T04:49:42.445Z,99.99
2018-06-03T04:50:42.617Z,99.99
2018-06-03T04:51:42.783Z,99.99
2018-06-03T04:52:42.950Z,99.99
2018-06-03T04:53:43.123Z,99.99
2018-06-03T04:54:43.295Z,99.99
2018-06-03T04:55:43.465Z,99.99
2018-06-03T04:56:43.633Z,99.99
2018-06-03T04:57:43.804Z,99.99
2018-06-03T04:58:43.969Z,99.99
2018-06-03T04:59:44.138Z,99.99
2018-06-03T05:00:44.304Z,99.99
2018-06-03T05:01:44.470Z,99.99
2018-06-03T05:02:44.637Z,99.99
2018-06-03T05:03:44.814Z,99.99
2018-06-03T05:04:44.988Z,99.99
2018-06-03T05:05:45.152Z,99.99
2018-06-03T05:06:45.318Z,99.99
2018-06-03T05:07:45.492Z,99.99
2018-06-03T05:08:45.670Z,99.99
2018-06-03T05:09:45.846Z,99.99
2018-06-03T05:10:46.016Z,99.99
2018-06-03T05:11:46.184Z,99.99
2018-06-03T05:12:46.356Z,99.99
2018-06-03T05:13:46.523Z,99.99
2018-06-03T05:14:46.696Z,99.99
2018-06-03T05:15:46.864Z,99.99
2018-06-03T05:16:47.031Z,99.99
2018-06-03T05:17:47.208Z,99.99
2018-06-03T05:18:47.377Z,99.99
2018-06-03T05:19:47.536Z,99.99
2018-06-03T05:20:47.705Z,99.99
2018-06-03T05:21:47.877Z,99.99
2018-06-03T05:22:48.047Z,99.99
2018-06-03T05:23:48.221Z,99.99
2018-06-03T05:24:48.385Z,99.99
2018-06-03T05:25:48.554Z,99.99
2018-06-03T05:26:48.724Z,99.99
2018-06-03T05:27:48.892Z,99.99
2018-06-03T05:28:49.066Z,99.99
2018-06-03T05:29:49.229Z,99.99
2018-06-03T05:30:49.405Z,99.99
2018-06-03T05:31:49.578Z,99.99
2018-06-03T05:32:49.744Z,99.99
2018-06-03T05:33:49.912Z,99.99
2018-06-03T05:34:50.085Z,99.99
2018-06-03T05:35:50.254Z,99.99
2018-06-03T05:36:50.428Z,99.99
2018-06-03T05:37:50.593Z,99.99
2018-06-03T05:38:50.765Z,99.99
2018-06-03T05:39:50.936Z,99.99
2018-06-03T05:40:51.104Z,99.99
2018-06-03T05:41:51.273Z,99.99
2018-06-03T05:42:51.447Z,99.99
2018-06-03T05:43:51.612Z,99.99
2018-06-03T05:44:51.786Z,99.99
2018-06-03T05:45:51.955Z,99.99
2018-06-03T05:46:52.125Z,99.99
2018-06-03T05:47:52.291Z,99.99
2018-06-03T05:48:52.466Z,99.21
2018-06-03T05:49:52.633Z,98.34
2018-06-03T05:50:52.806Z,97.81
2018-06-03T05:51:52.976Z,97.62
2018-06-03T05:52:53.146Z,97.14
2018-06-03T05:53:53.315Z,96.89
2018-06-03T05:54:53.485Z,96.22
2018-06-03T05:55:53.664Z,95.54
2018-06-03T05:56:53.827Z,95.01
2018-06-03T05:57:53.994Z,94.63
2018-06-03T05:58:54.159Z,93.23
2018-06-03T05:59:54.327Z,93.08
2018-06-03T06:00:54.496Z,92.32
2018-06-03T06:01:54.664Z,92.26
2018-06-03T06:02:54.837Z,91.97
2018-06-03T06:03:55.008Z,92.41
2018-06-03T06:04:55.177Z,92.41
2018-06-03T06:05:55.352Z,92.80
2018-06-03T06:06:55.527Z,92.89
2018-06-03T06:07:55.698Z,93.47
2018-06-03T06:08:55.907Z,94.00
2018-06-03T06:09:56.036Z,94.05
2018-06-03T06:10:56.212Z,94.15
2018-06-03T06:11:56.389Z,94.00
2018-06-03T06:12:56.555Z,93.76
2018-06-03T06:13:56.736Z,93.76
2018-06-03T06:14:56.900Z,93.57
2018-06-03T06:15:57.085Z,93.47
2018-06-03T06:16:57.245Z,92.89
2018-06-03T06:17:57.421Z,93.28
2018-06-03T06:18:57.588Z,93.37
2018-06-03T06:19:57.763Z,93.08
2018-06-03T06:20:57.939Z,93.18
2018-06-03T06:21:58.113Z,93.08
2018-06-03T06:22:58.288Z,93.13
2018-06-03T06:23:58.455Z,93.18
2018-06-03T06:24:58.625Z,92.60
2018-06-03T06:25:58.794Z,92.60
2018-06-03T06:26:58.961Z,92.70
2018-06-03T06:27:59.132Z,92.84
2018-06-03T06:28:59.309Z,92.65
2018-06-03T06:29:59.470Z,92.26
2018-06-03T06:30:59.640Z,92.16
2018-06-03T06:31:59.812Z,91.25
2018-06-03T06:32:59.987Z,91.39
2018-06-03T06:34:00.162Z,91.25
2018-06-03T06:35:00.336Z,90.77
2018-06-03T06:36:00.507Z,90.57
2018-06-03T06:37:00.682Z,89.89
2018-06-03T06:38:00.860Z,90.13
2018-06-03T06:39:01.026Z,89.45
2018-06-03T06:40:01.199Z,88.97
2018-06-03T06:41:01.374Z,89.26
2018-06-03T06:42:01.548Z,88.78
2018-06-03T06:43:01.808Z,89.17
2018-06-03T06:44:01.934Z,88.59
2018-06-03T06:45:02.113Z,87.91
2018-06-03T06:46:02.285Z,88.05
2018-06-03T06:47:02.451Z,88.15
2018-06-03T06:48:02.815Z,88.15
2018-06-03T06:49:02.835Z,88.05
2018-06-03T06:50:03.028Z,87.71
2018-06-03T06:51:03.213Z,87.23
2018-06-03T06:52:03.374Z,87.13
2018-06-03T06:53:03.548Z,86.74
2018-06-03T06:54:03.729Z,86.55
2018-06-03T06:55:03.898Z,86.35
2018-06-03T06:56:04.078Z,85.82
2018-06-03T06:57:04.249Z,85.24
2018-06-03T06:58:04.427Z,84.99
2018-06-03T06:59:04.596Z,84.50
2018-06-03T07:00:04.777Z,84.01
2018-06-03T07:01:04.943Z,83.73
2018-06-03T07:02:05.115Z,83.63
2018-06-03T07:03:05.910Z,83.73
2018-06-03T07:04:05.444Z,83.44
2018-06-03T07:05:05.627Z,83.44
2018-06-03T07:06:06.045Z,83.63
2018-06-03T07:07:06.033Z,84.21
2018-06-03T07:08:06.209Z,84.11
2018-06-03T07:09:06.381Z,83.92
2018-06-03T07:10:06.559Z,84.41
2018-06-03T07:11:06.737Z,84.01
2018-06-03T07:12:06.912Z,83.44
2018-06-03T07:13:07.094Z,83.34
2018-06-03T07:14:07.256Z,83.53
2018-06-03T07:15:07.433Z,83.53
2018-06-03T07:16:07.611Z,82.60
2018-06-03T07:17:07.785Z,83.28
2018-06-03T07:18:07.954Z,82.51
2018-06-03T07:19:08.125Z,81.73
2018-06-03T07:20:08.302Z,81.87
2018-06-03T07:21:08.478Z,81.58
2018-06-03T07:22:08.694Z,81.00
2018-06-03T07:23:08.836Z,80.52
2018-06-03T07:24:08.988Z,80.52
2018-06-03T07:25:09.175Z,80.13
2018-06-03T07:26:09.348Z,80.17
2018-06-03T07:27:09.524Z,80.26
2018-06-03T07:28:09.704Z,79.97
2018-06-03T07:29:09.875Z,79.58
2018-06-03T07:30:10.051Z,79.68
2018-06-03T07:31:10.221Z,79.20
2018-06-03T07:32:10.405Z,79.78
2018-06-03T07:33:10.584Z,80.62
2018-06-03T07:34:10.754Z,80.55
2018-06-03T07:35:10.925Z,80.17
2018-06-03T07:36:11.098Z,80.36
2018-06-03T07:37:11.264Z,80.46
2018-06-03T07:38:11.496Z,80.36
2018-06-03T07:39:11.624Z,80.71
2018-06-03T07:40:12.016Z,81.20
2018-06-03T07:41:11.924Z,81.20
2018-06-03T07:42:12.093Z,81.68
2018-06-03T07:43:12.326Z,81.48
2018-06-03T07:44:12.457Z,81.10
2018-06-03T07:45:12.623Z,81.00
2018-06-03T07:46:12.799Z,81.20
2018-06-03T07:47:12.976Z,81.20
2018-06-03T07:48:13.929Z,80.87
2018-06-03T07:49:13.320Z,80.80
2018-06-03T07:50:13.496Z,79.55
2018-06-03T07:51:13.664Z,79.25
2018-06-03T07:52:13.845Z,76.97
2018-06-03T07:53:14.020Z,76.68
2018-06-03T07:54:14.195Z,76.29
2018-06-03T07:55:14.367Z,76.10
2018-06-03T07:56:14.544Z,76.68
2018-06-03T07:57:14.731Z,76.81
2018-06-03T07:58:14.902Z,76.42
2018-06-03T07:59:15.071Z,74.87
2018-06-03T08:00:15.283Z,73.84
2018-06-03T08:01:15.463Z,73.84
2018-06-03T08:02:15.637Z,73.84
2018-06-03T08:03:15.818Z,73.68
2018-06-03T08:04:15.992Z,73.68
2018-06-03T08:05:16.167Z,72.61
2018-06-03T08:06:16.343Z,72.45
2018-06-03T08:07:16.532Z,70.29
2018-06-03T08:08:16.715Z,70.57
2018-06-03T08:09:16.880Z,70.77
2018-06-03T08:10:17.065Z,70.51
2018-06-03T08:11:17.239Z,70.32
2018-06-03T08:12:17.416Z,71.20
2018-06-03T08:13:17.591Z,71.00
2018-06-03T08:14:17.765Z,70.22
2018-06-03T08:15:18.006Z,70.45
2018-06-03T08:16:18.065Z,70.45
2018-06-03T08:17:18.234Z,69.87
2018-06-03T08:18:18.405Z,69.29
2018-06-03T08:19:18.580Z,68.80
2018-06-03T08:20:18.755Z,67.93
2018-06-03T08:21:18.920Z,68.60
2018-06-03T08:22:19.097Z,69.29
2018-06-03T08:23:19.278Z,68.25
2018-06-03T08:24:19.465Z,68.80
2018-06-03T08:25:19.639Z,68.99
2018-06-03T08:26:19.816Z,68.51
2018-06-03T08:27:19.994Z,68.32
2018-06-03T08:28:20.169Z,67.93
2018-06-03T08:29:20.342Z,68.60
2018-06-03T08:30:20.511Z,68.32
2018-06-03T08:31:20.693Z,68.02
2018-06-03T08:32:20.898Z,68.60
2018-06-03T08:33:21.086Z,68.60
2018-06-03T08:34:21.258Z,69.58
2018-06-03T08:35:21.437Z,70.45
2018-06-03T08:36:21.610Z,70.61
2018-06-03T08:37:21.788Z,72.17
2018-06-03T08:38:21.968Z,71.91
2018-06-03T08:39:22.138Z,72.49
2018-06-03T08:40:22.318Z,69.87
2018-06-03T08:41:22.496Z,68.41
2018-06-03T08:42:22.669Z,68.54
2018-06-03T08:43:22.839Z,70.49
2018-06-03T08:44:23.013Z,70.49
2018-06-03T08:45:23.187Z,68.93
2018-06-03T08:46:23.364Z,70.62
2018-06-03T08:47:23.541Z,68.54
2018-06-03T08:48:23.721Z,67.57
2018-06-03T08:49:23.891Z,68.41
2018-06-03T08:50:24.064Z,69.87
2018-06-03T08:51:24.234Z,68.48
2018-06-03T08:52:24.417Z,68.77
2018-06-03T08:53:24.595Z,69.58
2018-06-03T08:54:24.924Z,69.29
2018-06-03T08:55:24.963Z,67.73
2018-06-03T08:56:25.138Z,67.24
2018-06-03T08:57:25.311Z,68.70
2018-06-03T08:58:25.490Z,70.65
2018-06-03T08:59:25.663Z,67.44
2018-06-03T09:00:25.893Z,67.73
2018-06-03T09:01:26.019Z,67.24
2018-06-03T09:02:26.194Z,65.53
2018-06-03T09:03:26.372Z,64.78
2018-06-03T09:04:26.597Z,64.42
2018-06-03T09:05:26.775Z,65.69
2018-06-03T09:06:26.957Z,65.50
2018-06-03T09:07:27.133Z,65.04
2018-06-03T09:08:27.308Z,64.69
2018-06-03T09:09:27.488Z,63.93
2018-06-03T09:10:27.662Z,63.64
2018-06-03T09:11:27.838Z,63.28
2018-06-03T09:12:28.020Z,62.05
2018-06-03T09:13:28.188Z,62.24
2018-06-03T09:14:28.363Z,62.34
2018-06-03T09:15:28.543Z,62.27
2018-06-03T09:16:28.717Z,61.62
2018-06-03T09:17:28.900Z,60.28
2018-06-03T09:18:29.091Z,60.18
2018-06-03T09:19:29.257Z,59.69
2018-06-03T09:20:29.532Z,59.08
2018-06-03T09:21:29.632Z,59.28
2018-06-03T09:22:29.778Z,59.96
2018-06-03T09:23:29.955Z,58.89
2018-06-03T09:24:30.120Z,55.84
2018-06-03T09:25:30.308Z,52.03
2018-06-03T09:26:30.490Z,48.72
2018-06-03T09:27:30.669Z,47.34
2018-06-03T09:28:30.843Z,48.35
2018-06-03T09:29:31.025Z,49.16
2018-06-03T09:30:31.204Z,49.70
2018-06-03T09:31:31.383Z,50.93
2018-06-03T09:32:31.562Z,52.20
2018-06-03T09:33:31.774Z,52.98
2018-06-03T09:34:31.957Z,52.93
2018-06-03T09:35:32.116Z,48.90
2018-06-03T09:36:32.297Z,48.92
2018-06-03T09:37:32.478Z,48.52
2018-06-03T09:38:32.676Z,49.80
2018-06-03T09:39:32.895Z,50.68
2018-06-03T09:40:33.027Z,45.23
2018-06-03T09:41:33.199Z,46.44
2018-06-03T09:42:33.384Z,47.57
2018-06-03T09:43:33.566Z,49.77
2018-06-03T09:44:33.767Z,51.20
2018-06-03T09:45:33.923Z,52.03
2018-06-03T09:46:34.115Z,52.98
2018-06-03T09:47:34.287Z,52.64
2018-06-03T09:48:34.472Z,53.52
2018-06-03T09:49:34.642Z,52.98
2018-06-03T09:50:34.836Z,48.82
2018-06-03T09:51:35.011Z,47.77
2018-06-03T09:52:35.192Z,47.81
2018-06-03T09:53:35.381Z,49.33
2018-06-03T09:54:35.561Z,49.90
2018-06-03T09:55:35.741Z,51.25
2018-06-03T09:56:35.920Z,51.25
2018-06-03T09:57:36.111Z,50.93
2018-06-03T09:58:36.284Z,49.80
2018-06-03T09:59:36.466Z,45.99
2018-06-03T10:00:36.646Z,44.81
2018-06-03T10:01:36.824Z,42.85
2018-06-03T10:02:37.011Z,40.64
2018-06-03T10:03:37.193Z,36.85
2018-06-03T10:04:37.378Z,34.94
2018-06-03T10:05:37.560Z,33.78
2018-06-03T10:06:37.738Z,33.21
2018-06-03T10:07:37.917Z,34.23
2018-06-03T10:08:38.109Z,35.68
2018-06-03T10:09:38.289Z,35.94
2018-06-03T10:10:38.480Z,37.45
2018-06-03T10:11:38.665Z,36.83
2018-06-03T10:12:38.851Z,35.66
2018-06-03T10:13:39.037Z,35.89
2018-06-03T10:14:39.228Z,35.85
2018-06-03T10:15:39.409Z,35.11
2018-06-03T10:16:39.596Z,33.27
2018-06-03T10:17:39.795Z,31.21
2018-06-03T10:18:40.172Z,30.16
2018-06-03T10:19:40.217Z,29.90
2018-06-03T10:20:40.403Z,28.61
2018-06-03T10:21:40.592Z,28.14
2018-06-03T10:22:40.778Z,28.25
2018-06-03T10:23:40.970Z,27.04
2018-06-03T10:24:41.306Z,28.22
2018-06-03T10:25:41.391Z,30.12
2018-06-03T10:26:41.579Z,32.23
2018-06-03T10:27:41.783Z,33.17
2018-06-03T10:28:41.968Z,33.78
2018-06-03T10:29:42.159Z,32.24
2018-06-03T10:30:42.347Z,31.33
2018-06-03T10:31:42.533Z,29.58
2018-06-03T10:32:42.722Z,28.42
2018-06-03T10:33:42.980Z,29.18
2018-06-03T10:34:43.100Z,29.67
2018-06-03T10:35:43.287Z,30.38
2018-06-03T10:36:43.500Z,31.14
2018-06-03T10:37:43.686Z,33.16
2018-06-03T10:38:43.875Z,34.30
2018-06-03T10:39:44.069Z,35.75
2018-06-03T10:40:44.259Z,37.39
2018-06-03T10:41:44.444Z,37.45
2018-06-03T10:42:44.639Z,38.34
2018-06-03T10:43:44.835Z,39.12
2018-06-03T10:44:45.018Z,36.79
2018-06-03T10:45:45.212Z,32.89
2018-06-03T10:46:45.400Z,31.07
2018-06-03T10:47:45.599Z,30.72
2018-06-03T10:48:45.778Z,28.58
2018-06-03T10:49:45.971Z,27.23
2018-06-03T10:50:46.159Z,26.04
2018-06-03T10:51:46.341Z,25.97
2018-06-03T10:52:46.529Z,25.20
2018-06-03T10:53:46.718Z,23.80
2018-06-03T10:54:46.909Z,22.50
2018-06-03T10:55:47.092Z,22.61
2018-06-03T10:56:47.293Z,23.50
2018-06-03T10:57:47.484Z,24.41
2018-06-03T10:58:47.677Z,24.40
2018-06-03T10:59:47.927Z,24.55
2018-06-03T11:00:48.075Z,24.75
2018-06-03T11:01:48.266Z,27.39
2018-06-03T11:02:48.459Z,27.24
2018-06-03T11:03:48.651Z,28.96
2018-06-03T11:04:48.852Z,29.95
2018-06-03T11:05:49.040Z,28.05
2018-06-03T11:06:49.242Z,26.22
2018-06-03T11:07:49.428Z,24.36
2018-06-03T11:08:49.614Z,23.38
2018-06-03T11:09:49.816Z,23.61
2018-06-03T11:10:50.012Z,22.61
2018-06-03T11:11:50.219Z,22.03
2018-06-03T11:12:50.420Z,22.33
2018-06-03T11:13:50.608Z,21.03
2018-06-03T11:14:50.806Z,20.43
2018-06-03T11:15:51.001Z,20.34
2018-06-03T11:16:51.196Z,21.03
2018-06-03T11:17:51.391Z,20.65
2018-06-03T11:18:51.597Z,20.25
2018-06-03T11:19:51.801Z,19.36
2018-06-03T11:20:52.205Z,22.66
2018-06-03T11:21:52.446Z,20.47
2018-06-03T11:22:53.584Z,20.68
2018-06-03T11:23:52.745Z,20.39
2018-06-03T11:24:52.992Z,21.19
2018-06-03T11:25:53.183Z,21.09
2018-06-03T11:26:53.387Z,22.11
2018-06-03T11:27:53.586Z,23.27
2018-06-03T11:28:53.782Z,24.46
2018-06-03T11:29:53.977Z,26.89
2018-06-03T11:30:54.178Z,27.47
2018-06-03T11:31:54.374Z,28.52
2018-06-03T11:32:54.574Z,29.48
2018-06-03T11:33:54.767Z,30.66
2018-06-03T11:34:54.969Z,30.46
2018-06-03T11:35:55.160Z,28.93
2018-06-03T11:36:55.359Z,26.81
2018-06-03T11:37:55.554Z,26.23
2018-06-03T11:38:55.749Z,26.46
2018-06-03T11:39:55.959Z,25.77
2018-06-03T11:40:56.150Z,25.90
2018-06-03T11:41:56.344Z,26.06
2018-06-03T11:42:56.537Z,25.06
2018-06-03T11:43:56.733Z,24.21
2018-06-03T11:44:56.931Z,23.24
2018-06-03T11:45:57.130Z,22.06
2018-06-03T11:46:57.320Z,23.18
2018-06-03T11:47:57.513Z,22.18
2018-06-03T11:48:57.728Z,21.37
2018-06-03T11:49:57.919Z,20.38
2018-06-03T11:50:58.118Z,20.79
2018-06-03T11:51:58.312Z,21.99
2018-06-03T11:52:58.521Z,21.39
2018-06-03T11:53:58.714Z,21.17
2018-06-03T11:54:59.454Z,21.54
2018-06-03T11:55:59.104Z,24.95
2018-06-03T11:56:59.295Z,26.28
2018-06-03T11:57:59.493Z,27.91
2018-06-03T11:58:59.701Z,29.65
2018-06-03T11:59:59.881Z,30.80
2018-06-03T12:01:00.085Z,30.37
2018-06-03T12:02:00.435Z,33.21
2018-06-03T12:03:00.515Z,33.29
2018-06-03T12:04:00.704Z,33.28
2018-06-03T12:05:00.901Z,34.72
2018-06-03T12:06:01.085Z,36.78
2018-06-03T12:07:01.286Z,37.85
2018-06-03T12:08:01.480Z,35.58
2018-06-03T12:09:01.665Z,31.23
2018-06-03T12:10:01.937Z,28.52
2018-06-03T12:11:01.990Z,26.39
2018-06-03T12:12:02.177Z,25.02
2018-06-03T12:13:02.367Z,24.44
2018-06-03T12:14:02.556Z,23.47
2018-06-03T12:15:02.745Z,23.19
2018-06-03T12:16:02.974Z,22.50
2018-06-03T12:17:03.136Z,21.51
2018-06-03T12:18:03.324Z,21.70
2018-06-03T12:19:04.440Z,22.42
2018-06-03T12:20:03.714Z,21.33
2018-06-03T12:21:03.901Z,21.14
2018-06-03T12:22:04.090Z,20.34
2018-06-03T12:23:04.283Z,21.92
2018-06-03T12:24:04.476Z,21.12
2018-06-03T12:25:04.673Z,22.47
2018-06-03T12:26:04.878Z,22.88
2018-06-03T12:27:05.069Z,26.15
2018-06-03T12:28:05.263Z,28.86
2018-06-03T12:29:05.459Z,30.77
2018-06-03T12:30:05.651Z,30.83
2018-06-03T12:31:06.066Z,28.33
2018-06-03T12:32:06.075Z,26.08
2018-06-03T12:33:06.237Z,25.93
2018-06-03T12:34:06.740Z,29.07
2018-06-03T12:35:06.647Z,28.91
2018-06-03T12:36:06.838Z,27.04
2018-06-03T12:37:07.032Z,27.59
2018-06-03T12:38:07.239Z,30.39
2018-06-03T12:39:07.426Z,31.14
2018-06-03T12:40:07.616Z,30.70
2018-06-03T12:41:07.810Z,30.98
2018-06-03T12:42:08.007Z,31.94
2018-06-03T12:43:08.212Z,32.31
2018-06-03T12:44:08.398Z,33.46
2018-06-03T12:45:08.598Z,35.10
2018-06-03T12:46:08.778Z,35.88
2018-06-03T12:47:08.963Z,38.12
2018-06-03T12:48:09.154Z,40.35
2018-06-03T12:49:09.407Z,40.63
2018-06-03T12:50:09.597Z,40.43
2018-06-03T12:51:09.775Z,41.78
2018-06-03T12:52:09.966Z,42.28
2018-06-03T12:53:10.151Z,41.86
2018-06-03T12:54:10.341Z,42.65
2018-06-03T12:55:10.534Z,41.35